sensor_id;sensor_type;location;lat;lon;timestamp;P1;durP1;ratioP1;P2;durP2;ratioP2
14613;SDS011;7393;51.446;6.800;2024-01-15T00:00:52;40.67;;;20.57;;
14613;SDS011;7393;51.446;6.800;2024-01-15T00:03:20;38.03;;;19.67;;
14613;SDS011;7393;51.446;6.800;2024-01-15T00:05:47;42.97;;;20.07;;
14613;SDS011;7393;51.446;6.800;2024-01-15T00:08:13;40.43;;;20.57;;
14613;SDS011;7393;51.446;6.800;2024-01-15T00:10:40;37.23;;;19.73;;
14613;SDS011;7393;51.446;6.800;2024-01-15T00:13:07;36.33;;;18.80;;
14613;SDS011;7393;51.446;6.800;2024-01-15T00:15:34;36.90;;;19.27;;
14613;SDS011;7393;51.446;6.800;2024-01-15T00:18:01;33.57;;;18.73;;
14613;SDS011;7393;51.446;6.800;2024-01-15T00:20:29;37.47;;;18.30;;
14613;SDS011;7393;51.446;6.800;2024-01-15T00:22:56;35.77;;;18.50;;
14613;SDS011;7393;51.446;6.800;2024-01-15T00:25:23;34.40;;;18.30;;
14613;SDS011;7393;51.446;6.800;2024-01-15T00:27:49;35.97;;;19.00;;
14613;SDS011;7393;51.446;6.800;2024-01-15T00:30:16;33.47;;;18.43;;
14613;SDS011;7393;51.446;6.800;2024-01-15T00:32:43;33.10;;;17.73;;
14613;SDS011;7393;51.446;6.800;2024-01-15T00:35:10;36.23;;;17.27;;
14613;SDS011;7393;51.446;6.800;2024-01-15T00:37:38;33.33;;;17.40;;
14613;SDS011;7393;51.446;6.800;2024-01-15T00:40:06;31.67;;;17.13;;
14613;SDS011;7393;51.446;6.800;2024-01-15T00:42:33;31.03;;;16.83;;
14613;SDS011;7393;51.446;6.800;2024-01-15T00:45:00;30.90;;;17.40;;
14613;SDS011;7393;51.446;6.800;2024-01-15T00:47:27;30.07;;;16.33;;
14613;SDS011;7393;51.446;6.800;2024-01-15T00:49:54;36.83;;;17.07;;
14613;SDS011;7393;51.446;6.800;2024-01-15T00:52:21;30.37;;;17.73;;
14613;SDS011;7393;51.446;6.800;2024-01-15T00:54:49;32.33;;;17.00;;
14613;SDS011;7393;51.446;6.800;2024-01-15T00:57:16;34.90;;;18.30;;
14613;SDS011;7393;51.446;6.800;2024-01-15T00:59:44;36.37;;;17.73;;
14613;SDS011;7393;51.446;6.800;2024-01-15T01:02:10;31.80;;;16.43;;
14613;SDS011;7393;51.446;6.800;2024-01-15T01:04:37;29.80;;;17.17;;
14613;SDS011;7393;51.446;6.800;2024-01-15T01:07:04;28.47;;;16.60;;
14613;SDS011;7393;51.446;6.800;2024-01-15T01:09:31;32.70;;;17.30;;
14613;SDS011;7393;51.446;6.800;2024-01-15T01:11:59;29.00;;;15.97;;
14613;SDS011;7393;51.446;6.800;2024-01-15T01:14:26;30.47;;;17.23;;
14613;SDS011;7393;51.446;6.800;2024-01-15T01:16:53;28.47;;;16.90;;
14613;SDS011;7393;51.446;6.800;2024-01-15T01:19:19;29.37;;;16.57;;
14613;SDS011;7393;51.446;6.800;2024-01-15T01:21:46;32.90;;;17.50;;
14613;SDS011;7393;51.446;6.800;2024-01-15T01:24:13;32.70;;;16.90;;
14613;SDS011;7393;51.446;6.800;2024-01-15T01:26:40;30.70;;;17.90;;
14613;SDS011;7393;51.446;6.800;2024-01-15T01:29:08;30.77;;;17.50;;
14613;SDS011;7393;51.446;6.800;2024-01-15T01:31:35;30.70;;;17.53;;
14613;SDS011;7393;51.446;6.800;2024-01-15T01:34:01;32.00;;;18.73;;
14613;SDS011;7393;51.446;6.800;2024-01-15T01:36:28;31.90;;;17.13;;
14613;SDS011;7393;51.446;6.800;2024-01-15T01:38:57;30.40;;;17.10;;
14613;SDS011;7393;51.446;6.800;2024-01-15T01:41:24;29.37;;;16.90;;
14613;SDS011;7393;51.446;6.800;2024-01-15T01:43:51;32.27;;;17.30;;
14613;SDS011;7393;51.446;6.800;2024-01-15T01:46:19;30.47;;;17.00;;
14613;SDS011;7393;51.446;6.800;2024-01-15T01:48:46;29.17;;;16.20;;
14613;SDS011;7393;51.446;6.800;2024-01-15T01:51:13;25.67;;;15.90;;
14613;SDS011;7393;51.446;6.800;2024-01-15T01:53:41;27.33;;;15.63;;
14613;SDS011;7393;51.446;6.800;2024-01-15T01:56:10;27.83;;;16.27;;
14613;SDS011;7393;51.446;6.800;2024-01-15T01:58:38;28.97;;;15.53;;
14613;SDS011;7393;51.446;6.800;2024-01-15T02:01:05;27.67;;;16.07;;
14613;SDS011;7393;51.446;6.800;2024-01-15T02:03:34;32.90;;;16.43;;
14613;SDS011;7393;51.446;6.800;2024-01-15T02:06:02;28.90;;;15.33;;
14613;SDS011;7393;51.446;6.800;2024-01-15T02:08:29;29.37;;;14.50;;
14613;SDS011;7393;51.446;6.800;2024-01-15T02:10:56;29.57;;;15.30;;
14613;SDS011;7393;51.446;6.800;2024-01-15T02:13:23;29.83;;;15.63;;
14613;SDS011;7393;51.446;6.800;2024-01-15T02:15:49;28.07;;;14.73;;
14613;SDS011;7393;51.446;6.800;2024-01-15T02:18:16;26.33;;;13.90;;
14613;SDS011;7393;51.446;6.800;2024-01-15T02:20:44;28.33;;;13.47;;
14613;SDS011;7393;51.446;6.800;2024-01-15T02:23:13;29.97;;;13.80;;
14613;SDS011;7393;51.446;6.800;2024-01-15T02:25:41;25.10;;;13.80;;
14613;SDS011;7393;51.446;6.800;2024-01-15T02:28:10;24.60;;;13.30;;
14613;SDS011;7393;51.446;6.800;2024-01-15T02:30:38;27.53;;;13.40;;
14613;SDS011;7393;51.446;6.800;2024-01-15T02:33:05;28.40;;;13.63;;
14613;SDS011;7393;51.446;6.800;2024-01-15T02:35:33;26.80;;;14.43;;
14613;SDS011;7393;51.446;6.800;2024-01-15T02:38:01;22.03;;;12.63;;
14613;SDS011;7393;51.446;6.800;2024-01-15T02:40:30;23.20;;;12.73;;
14613;SDS011;7393;51.446;6.800;2024-01-15T02:42:56;26.60;;;13.40;;
14613;SDS011;7393;51.446;6.800;2024-01-15T02:45:23;21.87;;;12.37;;
14613;SDS011;7393;51.446;6.800;2024-01-15T02:47:50;22.90;;;11.90;;
14613;SDS011;7393;51.446;6.800;2024-01-15T02:50:17;25.20;;;12.37;;
14613;SDS011;7393;51.446;6.800;2024-01-15T02:52:44;20.10;;;11.77;;
14613;SDS011;7393;51.446;6.800;2024-01-15T02:55:11;22.57;;;12.00;;
14613;SDS011;7393;51.446;6.800;2024-01-15T02:57:39;22.90;;;11.23;;
14613;SDS011;7393;51.446;6.800;2024-01-15T03:00:06;21.80;;;11.97;;
14613;SDS011;7393;51.446;6.800;2024-01-15T03:02:37;20.17;;;10.47;;
14613;SDS011;7393;51.446;6.800;2024-01-15T03:05:05;18.13;;;10.80;;
14613;SDS011;7393;51.446;6.800;2024-01-15T03:07:33;19.47;;;10.70;;
14613;SDS011;7393;51.446;6.800;2024-01-15T03:10:00;18.93;;;9.63;;
14613;SDS011;7393;51.446;6.800;2024-01-15T03:12:26;17.53;;;9.33;;
14613;SDS011;7393;51.446;6.800;2024-01-15T03:14:55;17.03;;;8.87;;
14613;SDS011;7393;51.446;6.800;2024-01-15T03:17:21;15.77;;;8.63;;
14613;SDS011;7393;51.446;6.800;2024-01-15T03:19:48;17.13;;;8.67;;
14613;SDS011;7393;51.446;6.800;2024-01-15T03:22:15;16.03;;;8.40;;
14613;SDS011;7393;51.446;6.800;2024-01-15T03:24:42;15.53;;;8.50;;
14613;SDS011;7393;51.446;6.800;2024-01-15T03:27:09;15.10;;;8.37;;
14613;SDS011;7393;51.446;6.800;2024-01-15T03:29:36;15.97;;;8.27;;
14613;SDS011;7393;51.446;6.800;2024-01-15T03:32:04;18.53;;;8.90;;
14613;SDS011;7393;51.446;6.800;2024-01-15T03:34:31;15.37;;;8.53;;
14613;SDS011;7393;51.446;6.800;2024-01-15T03:36:58;19.30;;;9.00;;
14613;SDS011;7393;51.446;6.800;2024-01-15T03:39:25;15.57;;;7.90;;
14613;SDS011;7393;51.446;6.800;2024-01-15T03:41:52;16.00;;;8.07;;
14613;SDS011;7393;51.446;6.800;2024-01-15T03:44:18;15.00;;;8.87;;
14613;SDS011;7393;51.446;6.800;2024-01-15T03:46:45;15.00;;;8.47;;
14613;SDS011;7393;51.446;6.800;2024-01-15T03:49:13;20.43;;;10.07;;
14613;SDS011;7393;51.446;6.800;2024-01-15T03:51:40;20.23;;;10.17;;
14613;SDS011;7393;51.446;6.800;2024-01-15T03:54:07;19.27;;;10.67;;
14613;SDS011;7393;51.446;6.800;2024-01-15T03:56:33;24.53;;;10.17;;
14613;SDS011;7393;51.446;6.800;2024-01-15T03:59:00;18.67;;;9.63;;
14613;SDS011;7393;51.446;6.800;2024-01-15T04:01:27;16.80;;;10.67;;
14613;SDS011;7393;51.446;6.800;2024-01-15T04:03:54;19.53;;;11.13;;
14613;SDS011;7393;51.446;6.800;2024-01-15T04:06:22;22.40;;;11.37;;
14613;SDS011;7393;51.446;6.800;2024-01-15T04:08:49;21.30;;;11.53;;
14613;SDS011;7393;51.446;6.800;2024-01-15T04:11:16;18.97;;;11.70;;
14613;SDS011;7393;51.446;6.800;2024-01-15T04:13:43;21.37;;;12.30;;
14613;SDS011;7393;51.446;6.800;2024-01-15T04:16:10;22.03;;;11.67;;
14613;SDS011;7393;51.446;6.800;2024-01-15T04:18:36;17.50;;;11.23;;
14613;SDS011;7393;51.446;6.800;2024-01-15T04:21:03;22.83;;;11.30;;
14613;SDS011;7393;51.446;6.800;2024-01-15T04:23:32;19.40;;;10.83;;
14613;SDS011;7393;51.446;6.800;2024-01-15T04:25:59;17.53;;;11.97;;
14613;SDS011;7393;51.446;6.800;2024-01-15T04:28:26;17.53;;;11.50;;
14613;SDS011;7393;51.446;6.800;2024-01-15T04:30:53;19.60;;;11.90;;
14613;SDS011;7393;51.446;6.800;2024-01-15T04:33:20;15.63;;;10.77;;
14613;SDS011;7393;51.446;6.800;2024-01-15T04:35:47;17.63;;;11.27;;
14613;SDS011;7393;51.446;6.800;2024-01-15T04:38:15;15.67;;;10.97;;
14613;SDS011;7393;51.446;6.800;2024-01-15T04:40:43;16.73;;;10.93;;
14613;SDS011;7393;51.446;6.800;2024-01-15T04:43:10;15.30;;;10.03;;
14613;SDS011;7393;51.446;6.800;2024-01-15T04:45:37;20.10;;;10.10;;
14613;SDS011;7393;51.446;6.800;2024-01-15T04:48:04;17.23;;;9.87;;
14613;SDS011;7393;51.446;6.800;2024-01-15T04:50:31;15.27;;;9.87;;
14613;SDS011;7393;51.446;6.800;2024-01-15T04:52:57;14.33;;;9.87;;
14613;SDS011;7393;51.446;6.800;2024-01-15T04:55:24;17.73;;;9.07;;
14613;SDS011;7393;51.446;6.800;2024-01-15T04:57:52;19.30;;;9.73;;
14613;SDS011;7393;51.446;6.800;2024-01-15T05:00:19;15.23;;;9.17;;
14613;SDS011;7393;51.446;6.800;2024-01-15T05:02:46;17.37;;;9.03;;
14613;SDS011;7393;51.446;6.800;2024-01-15T05:05:12;14.50;;;9.50;;
14613;SDS011;7393;51.446;6.800;2024-01-15T05:07:39;15.40;;;9.13;;
14613;SDS011;7393;51.446;6.800;2024-01-15T05:10:06;16.40;;;9.23;;
14613;SDS011;7393;51.446;6.800;2024-01-15T05:12:33;11.60;;;8.93;;
14613;SDS011;7393;51.446;6.800;2024-01-15T05:15:02;14.10;;;9.03;;
14613;SDS011;7393;51.446;6.800;2024-01-15T05:17:29;14.17;;;9.00;;
14613;SDS011;7393;51.446;6.800;2024-01-15T05:19:56;15.30;;;9.23;;
14613;SDS011;7393;51.446;6.800;2024-01-15T05:22:23;15.90;;;9.03;;
14613;SDS011;7393;51.446;6.800;2024-01-15T05:24:50;16.73;;;9.53;;
14613;SDS011;7393;51.446;6.800;2024-01-15T05:27:17;15.67;;;9.03;;
14613;SDS011;7393;51.446;6.800;2024-01-15T05:29:44;17.03;;;9.73;;
14613;SDS011;7393;51.446;6.800;2024-01-15T05:32:12;17.20;;;9.37;;
14613;SDS011;7393;51.446;6.800;2024-01-15T05:34:39;13.73;;;9.07;;
14613;SDS011;7393;51.446;6.800;2024-01-15T05:37:05;18.27;;;9.23;;
14613;SDS011;7393;51.446;6.800;2024-01-15T05:39:32;15.30;;;8.60;;
14613;SDS011;7393;51.446;6.800;2024-01-15T05:41:59;16.23;;;9.00;;
14613;SDS011;7393;51.446;6.800;2024-01-15T05:44:25;13.63;;;8.57;;
14613;SDS011;7393;51.446;6.800;2024-01-15T05:46:51;13.80;;;8.30;;
14613;SDS011;7393;51.446;6.800;2024-01-15T05:49:20;15.50;;;8.00;;
14613;SDS011;7393;51.446;6.800;2024-01-15T05:51:47;14.27;;;8.37;;
14613;SDS011;7393;51.446;6.800;2024-01-15T05:54:14;17.00;;;8.37;;
14613;SDS011;7393;51.446;6.800;2024-01-15T05:56:41;14.87;;;8.27;;
14613;SDS011;7393;51.446;6.800;2024-01-15T05:59:07;10.90;;;6.90;;
14613;SDS011;7393;51.446;6.800;2024-01-15T06:01:34;18.13;;;8.37;;
14613;SDS011;7393;51.446;6.800;2024-01-15T06:04:01;15.07;;;7.73;;
14613;SDS011;7393;51.446;6.800;2024-01-15T06:06:29;14.43;;;7.80;;
14613;SDS011;7393;51.446;6.800;2024-01-15T06:08:56;12.27;;;7.07;;
14613;SDS011;7393;51.446;6.800;2024-01-15T06:11:30;14.63;;;6.80;;
14613;SDS011;7393;51.446;6.800;2024-01-15T06:13:57;13.67;;;6.73;;
14613;SDS011;7393;51.446;6.800;2024-01-15T06:16:24;13.43;;;7.00;;
14613;SDS011;7393;51.446;6.800;2024-01-15T06:18:50;9.73;;;6.53;;
14613;SDS011;7393;51.446;6.800;2024-01-15T06:21:17;9.10;;;5.80;;
14613;SDS011;7393;51.446;6.800;2024-01-15T06:23:45;12.83;;;6.73;;
14613;SDS011;7393;51.446;6.800;2024-01-15T06:26:12;11.30;;;5.70;;
14613;SDS011;7393;51.446;6.800;2024-01-15T06:28:39;8.37;;;5.67;;
14613;SDS011;7393;51.446;6.800;2024-01-15T06:31:06;12.53;;;6.33;;
14613;SDS011;7393;51.446;6.800;2024-01-15T06:33:33;10.53;;;5.10;;
14613;SDS011;7393;51.446;6.800;2024-01-15T06:35:59;12.83;;;5.00;;
14613;SDS011;7393;51.446;6.800;2024-01-15T06:38:26;10.23;;;3.93;;
14613;SDS011;7393;51.446;6.800;2024-01-15T06:40:54;6.97;;;3.97;;
14613;SDS011;7393;51.446;6.800;2024-01-15T06:43:21;5.70;;;3.93;;
14613;SDS011;7393;51.446;6.800;2024-01-15T06:45:48;11.90;;;3.70;;
14613;SDS011;7393;51.446;6.800;2024-01-15T06:48:15;6.10;;;3.17;;
14613;SDS011;7393;51.446;6.800;2024-01-15T06:50:41;3.53;;;2.87;;
14613;SDS011;7393;51.446;6.800;2024-01-15T06:53:08;3.63;;;2.90;;
14613;SDS011;7393;51.446;6.800;2024-01-15T06:55:35;10.17;;;3.50;;
14613;SDS011;7393;51.446;6.800;2024-01-15T06:58:04;7.33;;;2.93;;
14613;SDS011;7393;51.446;6.800;2024-01-15T07:00:30;5.33;;;2.40;;
14613;SDS011;7393;51.446;6.800;2024-01-15T07:02:57;5.07;;;2.97;;
14613;SDS011;7393;51.446;6.800;2024-01-15T07:05:24;4.50;;;2.70;;
14613;SDS011;7393;51.446;6.800;2024-01-15T07:07:51;4.27;;;2.80;;
14613;SDS011;7393;51.446;6.800;2024-01-15T07:10:18;4.17;;;2.67;;
14613;SDS011;7393;51.446;6.800;2024-01-15T07:12:45;3.93;;;2.70;;
14613;SDS011;7393;51.446;6.800;2024-01-15T07:15:13;5.77;;;2.80;;
14613;SDS011;7393;51.446;6.800;2024-01-15T07:17:40;5.47;;;2.70;;
14613;SDS011;7393;51.446;6.800;2024-01-15T07:20:08;5.50;;;3.00;;
14613;SDS011;7393;51.446;6.800;2024-01-15T07:22:35;7.33;;;3.00;;
14613;SDS011;7393;51.446;6.800;2024-01-15T07:25:02;8.87;;;3.20;;
14613;SDS011;7393;51.446;6.800;2024-01-15T07:27:29;8.67;;;4.23;;
14613;SDS011;7393;51.446;6.800;2024-01-15T07:29:56;4.27;;;2.77;;
14613;SDS011;7393;51.446;6.800;2024-01-15T07:32:25;6.53;;;3.10;;
14613;SDS011;7393;51.446;6.800;2024-01-15T07:34:51;5.83;;;3.23;;
14613;SDS011;7393;51.446;6.800;2024-01-15T07:37:18;10.30;;;4.33;;
14613;SDS011;7393;51.446;6.800;2024-01-15T07:39:45;8.13;;;4.00;;
14613;SDS011;7393;51.446;6.800;2024-01-15T07:42:12;7.43;;;4.00;;
14613;SDS011;7393;51.446;6.800;2024-01-15T07:44:38;10.30;;;4.63;;
14613;SDS011;7393;51.446;6.800;2024-01-15T07:47:05;11.90;;;5.80;;
14613;SDS011;7393;51.446;6.800;2024-01-15T07:49:35;11.83;;;6.30;;
14613;SDS011;7393;51.446;6.800;2024-01-15T07:52:01;14.17;;;7.00;;
14613;SDS011;7393;51.446;6.800;2024-01-15T07:54:29;15.93;;;7.97;;
14613;SDS011;7393;51.446;6.800;2024-01-15T07:56:56;12.27;;;8.20;;
14613;SDS011;7393;51.446;6.800;2024-01-15T07:59:24;16.33;;;9.33;;
14613;SDS011;7393;51.446;6.800;2024-01-15T08:01:52;13.33;;;9.77;;
14613;SDS011;7393;51.446;6.800;2024-01-15T08:04:19;17.00;;;9.80;;
14613;SDS011;7393;51.446;6.800;2024-01-15T08:06:48;15.80;;;10.00;;
14613;SDS011;7393;51.446;6.800;2024-01-15T08:09:15;20.27;;;10.03;;
14613;SDS011;7393;51.446;6.800;2024-01-15T08:11:42;17.77;;;10.27;;
14613;SDS011;7393;51.446;6.800;2024-01-15T08:14:09;14.23;;;9.73;;
14613;SDS011;7393;51.446;6.800;2024-01-15T08:16:36;17.37;;;10.23;;
14613;SDS011;7393;51.446;6.800;2024-01-15T08:19:03;16.57;;;10.50;;
14613;SDS011;7393;51.446;6.800;2024-01-15T08:21:30;20.40;;;10.00;;
14613;SDS011;7393;51.446;6.800;2024-01-15T08:23:59;22.40;;;10.67;;
14613;SDS011;7393;51.446;6.800;2024-01-15T08:26:27;18.00;;;10.80;;
14613;SDS011;7393;51.446;6.800;2024-01-15T08:28:54;15.53;;;10.10;;
14613;SDS011;7393;51.446;6.800;2024-01-15T08:31:20;16.10;;;10.43;;
14613;SDS011;7393;51.446;6.800;2024-01-15T08:33:47;14.90;;;10.17;;
14613;SDS011;7393;51.446;6.800;2024-01-15T08:36:14;20.00;;;10.00;;
14613;SDS011;7393;51.446;6.800;2024-01-15T08:38:41;17.03;;;10.07;;
14613;SDS011;7393;51.446;6.800;2024-01-15T08:41:09;18.60;;;10.77;;
14613;SDS011;7393;51.446;6.800;2024-01-15T08:43:36;13.63;;;8.73;;
14613;SDS011;7393;51.446;6.800;2024-01-15T08:46:03;10.47;;;8.73;;
14613;SDS011;7393;51.446;6.800;2024-01-15T08:48:30;16.93;;;10.13;;
14613;SDS011;7393;51.446;6.800;2024-01-15T08:50:57;16.97;;;10.00;;
14613;SDS011;7393;51.446;6.800;2024-01-15T08:53:23;21.67;;;10.43;;
14613;SDS011;7393;51.446;6.800;2024-01-15T08:55:50;13.07;;;9.33;;
14613;SDS011;7393;51.446;6.800;2024-01-15T08:58:19;14.70;;;9.90;;
14613;SDS011;7393;51.446;6.800;2024-01-15T09:00:45;13.27;;;9.07;;
14613;SDS011;7393;51.446;6.800;2024-01-15T09:03:12;9.87;;;7.93;;
14613;SDS011;7393;51.446;6.800;2024-01-15T09:05:39;11.67;;;8.17;;
14613;SDS011;7393;51.446;6.800;2024-01-15T09:08:06;11.60;;;8.50;;
14613;SDS011;7393;51.446;6.800;2024-01-15T09:10:33;12.80;;;8.20;;
14613;SDS011;7393;51.446;6.800;2024-01-15T09:13:00;10.23;;;7.93;;
14613;SDS011;7393;51.446;6.800;2024-01-15T09:15:30;14.27;;;7.63;;
14613;SDS011;7393;51.446;6.800;2024-01-15T09:17:57;10.33;;;7.77;;
14613;SDS011;7393;51.446;6.800;2024-01-15T09:20:24;11.20;;;8.10;;
14613;SDS011;7393;51.446;6.800;2024-01-15T09:22:52;12.00;;;8.50;;
14613;SDS011;7393;51.446;6.800;2024-01-15T09:25:19;14.83;;;8.63;;
14613;SDS011;7393;51.446;6.800;2024-01-15T09:27:46;13.83;;;7.83;;
14613;SDS011;7393;51.446;6.800;2024-01-15T09:30:13;12.93;;;7.43;;
14613;SDS011;7393;51.446;6.800;2024-01-15T09:32:41;12.47;;;6.67;;
14613;SDS011;7393;51.446;6.800;2024-01-15T09:35:08;14.47;;;6.60;;
14613;SDS011;7393;51.446;6.800;2024-01-15T09:37:35;12.77;;;5.73;;
14613;SDS011;7393;51.446;6.800;2024-01-15T09:40:03;6.63;;;5.40;;
14613;SDS011;7393;51.446;6.800;2024-01-15T09:42:31;8.47;;;5.03;;
14613;SDS011;7393;51.446;6.800;2024-01-15T09:44:59;5.83;;;4.83;;
14613;SDS011;7393;51.446;6.800;2024-01-15T09:47:25;10.00;;;5.20;;
14613;SDS011;7393;51.446;6.800;2024-01-15T09:49:54;10.97;;;4.97;;
14613;SDS011;7393;51.446;6.800;2024-01-15T09:52:23;11.87;;;5.10;;
14613;SDS011;7393;51.446;6.800;2024-01-15T09:54:50;14.80;;;5.60;;
14613;SDS011;7393;51.446;6.800;2024-01-15T09:57:17;12.07;;;5.20;;
14613;SDS011;7393;51.446;6.800;2024-01-15T09:59:45;13.50;;;5.90;;
14613;SDS011;7393;51.446;6.800;2024-01-15T10:02:13;11.13;;;4.53;;
14613;SDS011;7393;51.446;6.800;2024-01-15T10:04:43;9.93;;;4.20;;
14613;SDS011;7393;51.446;6.800;2024-01-15T10:07:12;8.67;;;4.60;;
14613;SDS011;7393;51.446;6.800;2024-01-15T10:09:42;11.80;;;4.33;;
14613;SDS011;7393;51.446;6.800;2024-01-15T10:12:09;9.73;;;4.57;;
14613;SDS011;7393;51.446;6.800;2024-01-15T10:14:36;11.73;;;4.77;;
14613;SDS011;7393;51.446;6.800;2024-01-15T10:17:11;9.40;;;4.10;;
14613;SDS011;7393;51.446;6.800;2024-01-15T10:19:39;11.63;;;4.70;;
14613;SDS011;7393;51.446;6.800;2024-01-15T10:22:06;5.03;;;3.83;;
14613;SDS011;7393;51.446;6.800;2024-01-15T10:24:35;7.27;;;4.30;;
14613;SDS011;7393;51.446;6.800;2024-01-15T10:27:05;8.77;;;4.30;;
14613;SDS011;7393;51.446;6.800;2024-01-15T10:29:33;8.73;;;4.30;;
14613;SDS011;7393;51.446;6.800;2024-01-15T10:31:59;9.77;;;4.27;;
14613;SDS011;7393;51.446;6.800;2024-01-15T10:34:27;10.13;;;4.30;;
14613;SDS011;7393;51.446;6.800;2024-01-15T10:36:54;5.80;;;3.97;;
14613;SDS011;7393;51.446;6.800;2024-01-15T10:39:21;8.23;;;4.33;;
14613;SDS011;7393;51.446;6.800;2024-01-15T10:41:49;7.17;;;3.60;;
14613;SDS011;7393;51.446;6.800;2024-01-15T10:44:17;7.23;;;3.90;;
14613;SDS011;7393;51.446;6.800;2024-01-15T10:46:44;12.57;;;4.10;;
14613;SDS011;7393;51.446;6.800;2024-01-15T10:49:12;8.20;;;3.90;;
14613;SDS011;7393;51.446;6.800;2024-01-15T10:51:39;12.67;;;4.20;;
14613;SDS011;7393;51.446;6.800;2024-01-15T10:54:07;5.83;;;3.83;;
14613;SDS011;7393;51.446;6.800;2024-01-15T10:56:36;7.67;;;3.57;;
14613;SDS011;7393;51.446;6.800;2024-01-15T10:59:04;6.53;;;3.73;;
14613;SDS011;7393;51.446;6.800;2024-01-15T11:01:32;7.10;;;4.00;;
14613;SDS011;7393;51.446;6.800;2024-01-15T11:03:59;5.17;;;3.90;;
14613;SDS011;7393;51.446;6.800;2024-01-15T11:06:27;10.70;;;4.30;;
14613;SDS011;7393;51.446;6.800;2024-01-15T11:09:06;8.57;;;4.27;;
14613;SDS011;7393;51.446;6.800;2024-01-15T11:11:34;8.80;;;4.27;;
14613;SDS011;7393;51.446;6.800;2024-01-15T11:14:02;9.10;;;4.00;;
14613;SDS011;7393;51.446;6.800;2024-01-15T11:16:53;6.43;;;4.10;;
14613;SDS011;7393;51.446;6.800;2024-01-15T11:19:21;6.20;;;4.50;;
14613;SDS011;7393;51.446;6.800;2024-01-15T11:21:48;6.00;;;4.13;;
14613;SDS011;7393;51.446;6.800;2024-01-15T11:27:00;6.13;;;3.83;;
14613;SDS011;7393;51.446;6.800;2024-01-15T11:29:31;8.00;;;4.20;;
14613;SDS011;7393;51.446;6.800;2024-01-15T11:32:05;5.37;;;4.00;;
14613;SDS011;7393;51.446;6.800;2024-01-15T11:37:28;9.43;;;4.23;;
14613;SDS011;7393;51.446;6.800;2024-01-15T11:40:17;8.00;;;4.40;;
14613;SDS011;7393;51.446;6.800;2024-01-15T11:42:45;9.67;;;4.10;;
14613;SDS011;7393;51.446;6.800;2024-01-15T11:45:12;5.73;;;3.80;;
14613;SDS011;7393;51.446;6.800;2024-01-15T11:47:57;8.80;;;4.20;;
14613;SDS011;7393;51.446;6.800;2024-01-15T11:50:42;7.43;;;3.97;;
14613;SDS011;7393;51.446;6.800;2024-01-15T11:53:13;8.33;;;3.63;;
14613;SDS011;7393;51.446;6.800;2024-01-15T11:55:44;5.13;;;3.33;;
14613;SDS011;7393;51.446;6.800;2024-01-15T11:58:13;7.07;;;3.20;;
14613;SDS011;7393;51.446;6.800;2024-01-15T12:00:42;10.30;;;3.47;;
14613;SDS011;7393;51.446;6.800;2024-01-15T12:03:11;8.30;;;3.10;;
14613;SDS011;7393;51.446;6.800;2024-01-15T12:05:38;9.37;;;3.53;;
14613;SDS011;7393;51.446;6.800;2024-01-15T12:08:04;4.90;;;2.73;;
14613;SDS011;7393;51.446;6.800;2024-01-15T12:10:35;5.70;;;2.83;;
14613;SDS011;7393;51.446;6.800;2024-01-15T12:13:04;8.20;;;2.70;;
14613;SDS011;7393;51.446;6.800;2024-01-15T12:15:35;7.07;;;2.80;;
14613;SDS011;7393;51.446;6.800;2024-01-15T12:18:03;5.67;;;2.00;;
14613;SDS011;7393;51.446;6.800;2024-01-15T12:20:31;7.50;;;2.33;;
14613;SDS011;7393;51.446;6.800;2024-01-15T12:22:59;10.03;;;2.60;;
14613;SDS011;7393;51.446;6.800;2024-01-15T12:25:28;4.60;;;2.00;;
14613;SDS011;7393;51.446;6.800;2024-01-15T12:27:56;4.57;;;2.07;;
14613;SDS011;7393;51.446;6.800;2024-01-15T12:30:25;4.33;;;2.07;;
14613;SDS011;7393;51.446;6.800;2024-01-15T12:32:52;6.50;;;2.47;;
14613;SDS011;7393;51.446;6.800;2024-01-15T12:35:19;7.60;;;2.37;;
14613;SDS011;7393;51.446;6.800;2024-01-15T12:37:47;3.57;;;2.20;;
14613;SDS011;7393;51.446;6.800;2024-01-15T12:40:18;7.27;;;2.30;;
14613;SDS011;7393;51.446;6.800;2024-01-15T12:42:45;3.60;;;2.20;;
14613;SDS011;7393;51.446;6.800;2024-01-15T12:45:12;7.63;;;2.10;;
14613;SDS011;7393;51.446;6.800;2024-01-15T12:47:40;4.83;;;2.20;;
14613;SDS011;7393;51.446;6.800;2024-01-15T12:50:07;8.33;;;2.33;;
14613;SDS011;7393;51.446;6.800;2024-01-15T12:52:35;5.90;;;2.70;;
14613;SDS011;7393;51.446;6.800;2024-01-15T12:55:04;10.80;;;2.87;;
14613;SDS011;7393;51.446;6.800;2024-01-15T12:57:32;4.73;;;2.40;;
14613;SDS011;7393;51.446;6.800;2024-01-15T13:00:00;7.20;;;2.60;;
14613;SDS011;7393;51.446;6.800;2024-01-15T13:02:28;5.70;;;2.90;;
14613;SDS011;7393;51.446;6.800;2024-01-15T13:04:54;4.03;;;2.30;;
14613;SDS011;7393;51.446;6.800;2024-01-15T13:07:21;7.50;;;2.90;;
14613;SDS011;7393;51.446;6.800;2024-01-15T13:09:48;6.30;;;2.80;;
14613;SDS011;7393;51.446;6.800;2024-01-15T13:12:20;7.30;;;3.10;;
14613;SDS011;7393;51.446;6.800;2024-01-15T13:14:47;5.13;;;2.50;;
14613;SDS011;7393;51.446;6.800;2024-01-15T13:17:14;3.83;;;2.33;;
14613;SDS011;7393;51.446;6.800;2024-01-15T13:19:41;3.17;;;2.23;;
14613;SDS011;7393;51.446;6.800;2024-01-15T13:22:08;3.40;;;2.77;;
14613;SDS011;7393;51.446;6.800;2024-01-15T13:24:35;3.67;;;2.67;;
14613;SDS011;7393;51.446;6.800;2024-01-15T13:27:02;4.87;;;2.60;;
14613;SDS011;7393;51.446;6.800;2024-01-15T13:29:31;7.77;;;3.00;;
14613;SDS011;7393;51.446;6.800;2024-01-15T13:31:58;4.53;;;2.77;;
14613;SDS011;7393;51.446;6.800;2024-01-15T13:34:26;6.73;;;3.37;;
14613;SDS011;7393;51.446;6.800;2024-01-15T13:36:53;7.93;;;3.53;;
14613;SDS011;7393;51.446;6.800;2024-01-15T13:39:20;8.73;;;3.00;;
14613;SDS011;7393;51.446;6.800;2024-01-15T13:41:47;5.50;;;2.70;;
14613;SDS011;7393;51.446;6.800;2024-01-15T13:44:14;5.00;;;2.97;;
14613;SDS011;7393;51.446;6.800;2024-01-15T13:46:42;4.90;;;2.93;;
14613;SDS011;7393;51.446;6.800;2024-01-15T13:49:09;4.70;;;2.67;;
14613;SDS011;7393;51.446;6.800;2024-01-15T13:51:36;2.73;;;2.23;;
14613;SDS011;7393;51.446;6.800;2024-01-15T13:54:02;4.97;;;2.73;;
14613;SDS011;7393;51.446;6.800;2024-01-15T13:56:30;5.27;;;2.17;;
14613;SDS011;7393;51.446;6.800;2024-01-15T13:58:57;4.63;;;1.97;;
14613;SDS011;7393;51.446;6.800;2024-01-15T14:01:24;4.13;;;1.70;;
14613;SDS011;7393;51.446;6.800;2024-01-15T14:03:53;2.13;;;1.60;;
14613;SDS011;7393;51.446;6.800;2024-01-15T14:06:20;2.97;;;1.50;;
14613;SDS011;7393;51.446;6.800;2024-01-15T14:08:46;4.93;;;1.40;;
14613;SDS011;7393;51.446;6.800;2024-01-15T14:11:13;2.43;;;1.50;;
14613;SDS011;7393;51.446;6.800;2024-01-15T14:13:40;4.30;;;1.73;;
14613;SDS011;7393;51.446;6.800;2024-01-15T14:16:07;2.37;;;1.77;;
14613;SDS011;7393;51.446;6.800;2024-01-15T14:18:34;3.57;;;1.80;;
14613;SDS011;7393;51.446;6.800;2024-01-15T14:21:02;5.13;;;1.73;;
14613;SDS011;7393;51.446;6.800;2024-01-15T14:23:29;5.43;;;1.83;;
14613;SDS011;7393;51.446;6.800;2024-01-15T14:25:56;4.50;;;1.87;;
14613;SDS011;7393;51.446;6.800;2024-01-15T14:28:23;4.50;;;1.80;;
14613;SDS011;7393;51.446;6.800;2024-01-15T14:30:50;2.47;;;1.43;;
14613;SDS011;7393;51.446;6.800;2024-01-15T14:33:17;2.50;;;1.80;;
14613;SDS011;7393;51.446;6.800;2024-01-15T14:35:45;3.57;;;1.63;;
14613;SDS011;7393;51.446;6.800;2024-01-15T14:38:13;2.97;;;1.60;;
14613;SDS011;7393;51.446;6.800;2024-01-15T14:40:40;4.30;;;1.40;;
14613;SDS011;7393;51.446;6.800;2024-01-15T14:43:07;3.50;;;1.60;;
14613;SDS011;7393;51.446;6.800;2024-01-15T14:45:34;3.93;;;1.40;;
14613;SDS011;7393;51.446;6.800;2024-01-15T14:48:00;3.50;;;1.60;;
14613;SDS011;7393;51.446;6.800;2024-01-15T14:50:27;5.27;;;1.67;;
14613;SDS011;7393;51.446;6.800;2024-01-15T14:52:54;2.43;;;1.53;;
14613;SDS011;7393;51.446;6.800;2024-01-15T14:55:22;2.87;;;1.50;;